Evan Wibowo

Jefe de ojeadores - Persebaya
3 Dic 2028
Domingo
Continuar

Personalidad

Adaptabilidad (9) Ambición (19) Controversia (10) Lealtad (11) Presión (11) Profesionalismo (17) Deportividad (14) Temperamento (20)

Perfil

Estilo de dirección Democrático
Licencia Continental A
Determinación 10
Gestión de personas 8
Motivación 8
Disciplina 4
Satisfacción laboral
100%
Fatiga
0%
Cargo Jefe de ojeadores
Salario 41.9K p/s
Contrato 14.03.2029

Rendimiento

Comportamiento Bueno
Efectividad del entrenamiento
24%
Desarrollo de jugadores
40%
Prevención de lesiones
35%
Implementación táctica
20%

Eventos recientes

Asistió a una reunión de captación 7d atrás
Asistió a una reunión de captación 14d atrás
Asistió a una reunión de captación 21d atrás
Asistió a una reunión de captación 28d atrás
Asistió a una reunión de captación 35d atrás
Asistió a una reunión de captación 42d atrás
Asistió a una reunión de captación 49d atrás
Asistió a una reunión de captación 56d atrás

Actualmente siguiendo

85
Jugador Club Estado Habilidad Confianza Observado Última observación Último voto
Sudi Abdallah Persijap Rechazado 93 / 103 76% 1 31.07.2028 -
Luquinhas PSBS Biak Rechazado 94 / 103 76% 1 02.06.2028 -
Mauricio Vera Bhayangkara Presisi Activo 122 / 128 40% 1 17.01.2028 -
Iago Mendonça Borneo Activo 100 / 100 40% 4 27.12.2027 -
Gabriel Díaz Patronato Activo 108 / 130 40% 1 27.12.2027 -
Ivar Jenner Dewa United Activo 107 / 106 40% 2 26.12.2027 -
Tomás Rojas Atlanta Activo 109 / 129 40% 1 25.12.2027 -
Agustín Maidana San Marcos de Arica Activo 111 / 94 40% 1 25.12.2027 -
Radovan Pankov Persija Activo 112 / 102 40% 2 24.12.2027 -
Mirza Mustafić Bali United Activo 97 / 98 40% 1 24.12.2027 -
Jaime Giraldo Semen Padang Activo 101 / 108 40% 3 23.12.2027 -
Enzo Silcan Almagro Activo 105 / 110 40% 1 22.12.2027 -
Ruxi Madura United Activo 95 / 103 40% 2 19.12.2027 -
Kerim Palić Madura United Activo 106 / 113 40% 1 18.12.2027 -
Borja Martínez Persijap Activo 109 / 95 40% 1 18.12.2027 -
Leonel Pollacchi San Telmo Activo 112 / 120 40% 3 15.12.2027 -
Igor Inocêncio Maluku Utara United Activo 120 / 122 40% 3 14.12.2027 -
Bruno Tubarão Persija Activo 120 / 119 40% 3 13.12.2027 -
Franco Hanashiro Colegiales Activo 102 / 120 40% 1 13.12.2027 -
Pablo Oliveira Arema Activo 107 / 104 40% 1 06.12.2027 -
Miroslav Maričić Persis Activo 104 / 102 40% 1 20.11.2027 -
Franco Ramos Mingo PSIM Activo 93 / 91 40% 1 20.11.2027 -
Yeferson Rodallega Envigado Activo 111 / 117 40% 2 18.11.2027 -
Mendonça Madura United Activo 94 / 98 40% 1 18.11.2027 -
Johnathan Dewa United Activo 109 / 115 40% 1 17.11.2027 -
Brandon Wilson Bali United Activo 86 / 103 40% 1 04.11.2027 -
Thijmen Goppel Bali United Activo 120 / 117 40% 2 06.10.2027 -
Ramón Bueno Persita Activo 101 / 104 40% 1 05.09.2027 -
Danijel Lončar Persib Activo 112 / 92 40% 2 24.08.2027 -
Mohammad Al-Husseini Borneo Activo 86 / 94 40% 1 15.08.2027 -
Sávio PSM Activo 107 / 100 40% 1 12.08.2027 -
Lautaro Núñez Alvarado Activo 98 / 104 40% 2 10.08.2027 -
Remeao Hutton Gillingham Activo 105 / 94 40% 1 07.08.2027 -
Aly Ndom Persijap Activo 99 / 91 40% 1 03.08.2027 -
Tin Martić Semen Padang Activo 102 / 106 40% 1 31.07.2027 -
Nikita Pechenkin Sokol Activo 95 / 102 40% 6 13.07.2027 -
Stefan Lončar Akron Activo 118 / 126 40% 3 11.07.2027 -
David Shavlokhov Chernomorets Activo 93 / 82 40% 3 07.07.2027 -
David Kokoev Yenisey Activo 99 / 104 40% 3 07.07.2027 -
Alexey Berdnikov Chelyabinsk Activo 93 / 81 40% 2 02.07.2027 -
Oleg Lanin Shinnik Activo 98 / 92 40% 3 30.06.2027 -
Alan Khabalov Ufa Activo 90 / 90 40% 2 26.06.2027 -
Joe Snowdon Swindon Town Activo 93 / 88 40% 1 25.06.2027 -
Niccolò Zanellato Casarano Activo 114 / 99 40% 1 24.06.2027 -
Pêpê Pafos Activo 125 / 118 40% 1 20.06.2027 -
Hamza El Kaouakibi Südtirol Activo 101 / 115 40% 2 19.06.2027 -
Saminu Abdullahi KAMAZ Activo 93 / 86 40% 3 30.05.2027 -
Mario Ćurić Torpedo Moscow Activo 102 / 91 40% 2 29.05.2027 -
Kirill Malyarov Shinnik Activo 102 / 102 40% 4 24.05.2027 -
Riley Owen Stevenage Activo 107 / 95 40% 3 23.05.2027 -
Daniil Marugin Shinnik Activo 87 / 100 40% 2 21.05.2027 -
Vladis Emmersón Yenisey Activo 101 / 95 40% 2 21.05.2027 -
Vladislav Masternoy SKA Khabarovsk Activo 87 / 83 40% 3 17.05.2027 -
Kamil Ibragimov Volga Activo 101 / 92 40% 1 14.05.2027 -
Tiri Persijap Activo 115 / 115 30% 1 / 1m 12.05.2027 -
Rakhmatsho Rakhmatzoda Persijap Activo 92 / 95 30% 1 / 1m 12.05.2027 -
Pavel Maslov Chaika Activo 107 / 96 40% 3 09.05.2027 -
Fahd Moufi Baltika Activo 111 / 134 40% 2 09.05.2027 -
Leandro Martins Benfica Activo 85 / 94 40% 1 08.05.2027 -
Igor Konovalov Chernomorets Activo 92 / 86 40% 1 04.05.2027 -
Ruslan Baitukov Chelyabinsk Activo 97 / 83 40% 1 26.04.2027 -
Alessio Rizza Livorno Activo 102 / 113 40% 1 26.04.2027 -
Daniil Penchikov Arsenal Tula Activo 104 / 97 40% 2 25.04.2027 -
Giorgi Kantaria Neftekhimik Activo 98 / 95 40% 2 24.04.2027 -
Gleb Shevchenko Torpedo Moscow Activo 98 / 101 40% 2 21.04.2027 -
Vladislav Malkevich Ural Activo 95 / 92 40% 1 21.04.2027 -
Denis Fomin SKA Khabarovsk Activo 104 / 100 40% 1 18.04.2027 -
Soslan Kagermazov Dinamo Makhachkala Activo 91 / 109 40% 2 15.04.2027 -
Vyacheslav Yakimov Fakel Activo 117 / 108 40% 1 14.04.2027 -
Kirill Bolshakov Arsenal Tula Activo 110 / 101 40% 1 12.04.2027 -
Mitja Križan Rodina Activo 102 / 96 40% 1 10.04.2027 -
Leo Goglichidze Rodina Activo 123 / 118 40% 2 09.04.2027 -
Vladislav Kamilov Ufa Activo 93 / 92 40% 2 08.04.2027 -
Konstantin Kertanov Chelyabinsk Activo 105 / 95 40% 2 08.04.2027 -
Andrea Chukanov Yenisey Activo 105 / 91 40% 2 03.04.2027 -
Konstantin Kovalev Volga Activo 87 / 103 40% 2 03.04.2027 -
Artem Makarchuk Sochi Activo 122 / 129 40% 1 30.03.2027 -
Yegor Noskov SKA Khabarovsk Activo 99 / 78 40% 2 23.03.2027 -
Mingiyan Beveev Baltika Activo 105 / 100 40% 1 15.03.2027 -
Alexandr Troshechkin Rotor Activo 97 / 93 40% 1 12.03.2027 -
Artur Cherny Shinnik Activo 101 / 109 40% 1 07.03.2027 -
Ezequiel Vidal PSIM Activo 127 / 127 52% 1 / 1m 19.08.2026 -
Giovanni González River Plate Activo 139 / 121 40% 1 01.08.2026 -
Alejo Osella Independiente Rivadavia Activo 113 / 112 40% 1 01.08.2026 -
Takahiro Sekine Sydney FC Activo 110 / 124 40% 1 01.08.2026 -